Ana Sayfa
METAR-TAF:

METAR-TAF

Havaalanları :

Hastings Municipal Airport

Hastings, Nebraska, Amerika Birleşik Devletleri

Enlem: 40-36-02N, Boylam: 098-25-33W, yükseklik: 595 m

Güncel hava durumu gözlemi

Rapor saat 02:53 UTC de 41 dakika önce yapıldı.
Rüzgar doğu/kuzeydoğudan 12 kt ve 21 kt'a kadar ani rüzgarlar
Sıcaklık 14°C
Nem 51%
Basınç 1012 hPa
Görüş mesafesi: 16.1 km
Açık gökyüzü

METAR: KHSI 180253Z AUTO 06012G21KT 10SM CLR 14/04 A2989 RMK AO2 SLP119 T01440039 53004

Saat: 22:34 (03:34 UTC)


TAF: eksik

4.000'den fazla havaalanı için hava durumu gözlemleri ve tahminleri (METAR ve TAF raporları).

Kullanılabilir istasyonlar harita üzerinde sarı ve kırmızı noktalarla gösterilir.

İstasyonun adını görmek için fareyi noktanın üzerinde gezdirin.

Sonrasında hava gözlem ve tahminlerini görmek için tıklayın.

Haritayı değiştirmek için: yaklaştırmak için siyah artı işaretli yeşil düğmeye ve uzaklaştırmak için de eksi işaretli düğmeye hızla tıklayın; bitişik haritalar için yeşil okları kullanın.


METAR-TAF: